Time;durP1;ratioP1;P1;durP2;ratioP2;P2;SDS_P1;SDS_P2;PMS_P1;PMS_P2;Temp;Humidity;BMP_temperature;BMP_pressure;BME280_temperature;BME280_humidity;BME280_pressure;Samples;Min_cycle;Max_cycle;Signal;HPM_P1;HPM_P2
2021/05/16 00:00:35;;;;;;;8.03;4.70;;;10.30;73.20;11.40;99359.00;;;;5045085;28;20468;-81
2021/05/16 00:03:04;;;;;;;6.83;4.20;;;10.30;73.50;11.40;99367.00;;;;5057181;28;20472;-82
2021/05/16 00:05:33;;;;;;;11.50;4.93;;;10.30;73.40;11.40;99373.00;;;;5039522;28;20629;-79
2021/05/16 00:08:01;;;;;;;8.03;4.00;;;10.30;73.10;11.40;99354.00;;;;5039598;28;20456;-84
2021/05/16 00:10:29;;;;;;;6.13;4.33;;;10.30;73.20;11.40;99360.00;;;;5056001;28;20548;-85
2021/05/16 00:12:59;;;;;;;6.47;4.33;;;10.30;73.30;11.40;99343.00;;;;5059654;28;20489;-82
2021/05/16 00:15:29;;;;;;;4.93;4.40;;;10.30;73.30;11.30;99360.00;;;;5060353;28;20476;-82
2021/05/16 00:17:58;;;;;;;9.50;4.60;;;10.30;73.40;11.40;99358.00;;;;5053370;28;20452;-81
2021/05/16 00:20:31;;;;;;;6.10;4.50;;;10.30;73.40;11.40;99367.00;;;;5029599;28;21009;-80
2021/05/16 00:23:00;;;;;;;6.50;4.10;;;10.30;73.10;11.40;99366.00;;;;5040213;28;20900;-83
2021/05/16 00:25:29;;;;;;;9.45;5.38;;;10.30;73.50;11.60;99366.00;;;;5037374;28;20485;-83
2021/05/16 00:27:57;;;;;;;7.13;5.03;;;10.40;73.60;11.60;99368.00;;;;5042788;28;20481;-82
2021/05/16 00:30:27;;;;;;;8.50;6.03;;;10.50;72.80;11.70;99372.00;;;;5029236;28;20419;-83
2021/05/16 00:32:57;;;;;;;7.77;5.10;;;10.50;72.40;11.40;99359.00;;;;5031078;28;20206;-83
2021/05/16 00:35:28;;;;;;;8.97;4.77;;;10.40;72.00;217.30;161515.00;;;;5023764;28;20484;-83
2021/05/16 00:37:57;;;;;;;8.83;5.47;;;10.20;72.20;11.30;68757.00;;;;5030032;28;20484;-82
2021/05/16 00:40:25;;;;;;;6.37;4.73;;;10.20;72.70;11.20;99141.00;;;;5058364;28;20527;-89
2021/05/16 00:42:54;;;;;;;6.27;5.07;;;10.20;72.80;11.20;99369.00;;;;5054898;28;20476;-87
2021/05/16 00:45:25;;;;;;;6.00;5.03;;;10.10;73.20;11.20;99368.00;;;;5057245;28;20406;-85
2021/05/16 00:47:56;;;;;;;8.90;4.40;;;10.20;73.10;11.20;99364.00;;;;5059553;28;20183;-85
2021/05/16 00:50:28;;;;;;;7.63;5.05;;;10.20;72.70;11.30;99368.00;;;;5063584;28;20405;-81
2021/05/16 00:52:58;;;;;;;6.33;4.60;;;10.20;72.20;11.20;99359.00;;;;5076788;28;20272;-85
2021/05/16 00:55:27;;;;;;;8.70;5.05;;;10.20;72.20;11.20;99361.00;;;;5067809;28;20495;-87
2021/05/16 00:57:56;;;;;;;7.77;4.83;;;10.20;72.00;11.10;99357.00;;;;5062357;28;20202;-87
2021/05/16 01:00:26;;;;;;;7.63;5.00;;;10.10;71.90;11.20;99347.00;;;;5048961;28;20443;-80
2021/05/16 01:03:00;;;;;;;9.87;4.97;;;10.20;72.40;11.10;99356.00;;;;5037271;28;20256;-82
2021/05/16 01:05:31;;;;;;;8.20;5.35;;;10.10;72.10;11.10;99351.00;;;;5034725;28;20826;-82
2021/05/16 01:07:59;;;;;;;17.43;5.70;;;10.20;72.20;11.10;99351.00;;;;5039354;28;20213;-86
2021/05/16 01:10:27;;;;;;;7.18;5.40;;;10.20;72.30;11.20;99361.00;;;;5037112;28;20514;-83
2021/05/16 01:12:56;;;;;;;6.40;4.60;;;10.20;72.10;11.20;99347.00;;;;5030761;28;20865;-85
2021/05/16 01:15:28;;;;;;;9.53;5.10;;;10.20;71.80;11.20;99353.00;;;;5035961;28;20418;-81
2021/05/16 01:17:57;;;;;;;5.23;4.47;;;10.30;71.90;11.20;99366.00;;;;5032633;28;20452;-81
2021/05/16 01:20:29;;;;;;;8.18;4.97;;;10.30;71.70;11.20;99368.00;;;;5019155;28;20534;-81
2021/05/16 01:23:01;;;;;;;8.90;5.20;;;10.30;71.40;11.20;99353.00;;;;5047175;28;20244;-82
2021/05/16 01:25:32;;;;;;;7.22;4.90;;;10.30;71.60;11.30;99367.00;;;;5018973;28;20423;-79
2021/05/16 01:28:00;;;;;;;10.17;5.03;;;10.30;71.40;11.20;99358.00;;;;5028968;28;20206;-80
2021/05/16 01:30:29;;;;;;;9.10;4.90;;;10.30;71.30;11.30;99348.00;;;;5018382;28;20419;-79
2021/05/16 01:32:57;;;;;;;7.40;4.40;;;10.30;71.40;11.30;99366.00;;;;5028804;28;20210;-80
2021/05/16 01:35:26;;;;;;;7.22;5.10;;;10.30;71.30;11.30;68773.00;;;;5023510;28;20491;-82
2021/05/16 01:37:54;;;;;;;7.13;4.40;;;10.40;71.30;217.30;161545.00;;;;5040618;28;20217;-80
2021/05/16 01:40:24;;;;;;;5.90;4.27;;;10.30;71.90;11.20;99379.00;;;;5038038;28;20608;-79
2021/05/16 01:42:58;;;;;;;7.65;5.00;;;10.20;71.80;11.30;99382.00;;;;5038409;28;21148;-80
2021/05/16 01:45:29;;;;;;;7.70;4.70;;;10.30;71.70;11.20;99379.00;;;;5045626;28;20193;-82
2021/05/16 01:47:58;;;;;;;7.35;4.30;;;10.30;71.60;11.20;99387.00;;;;5027008;28;20463;-79
2021/05/16 01:50:30;;;;;;;7.70;4.27;;;10.40;71.40;11.20;99388.00;;;;5025850;28;20222;-81
2021/05/16 01:53:01;;;;;;;8.13;4.50;;;10.30;71.30;11.30;99392.00;;;;5030928;28;20514;-79
2021/05/16 01:55:30;;;;;;;5.83;4.40;;;10.30;71.40;11.30;99392.00;;;;5029728;28;20765;-79
2021/05/16 01:57:57;;;;;;;6.32;4.40;;;10.30;71.10;11.30;99393.00;;;;5027668;28;20979;-82
2021/05/16 02:00:30;;;;;;;7.83;4.67;;;10.30;71.00;11.30;99391.00;;;;5027987;28;20263;-82
2021/05/16 02:03:02;;;;;;;7.38;4.40;;;10.30;71.10;11.40;99383.00;;;;5025838;28;20435;-79
2021/05/16 02:05:36;;;;;;;7.77;4.17;;;10.30;71.30;11.30;99384.00;;;;5028421;28;20243;-82
2021/05/16 02:08:05;;;;;;;6.88;4.50;;;10.30;71.10;11.40;99383.00;;;;5018613;28;20430;-80
2021/05/16 02:10:36;;;;;;;7.33;4.87;;;10.30;71.50;11.40;99390.00;;;;5022544;28;20576;-84
2021/05/16 02:13:10;;;;;;;7.63;4.70;;;10.20;71.50;11.50;99388.00;;;;5043624;28;20422;-86
2021/05/16 02:15:41;;;;;;;11.43;5.03;;;10.40;71.50;11.50;99378.00;;;;5050529;28;20237;-79
2021/05/16 02:18:16;;;;;;;7.82;4.50;;;10.30;71.50;11.50;99380.00;;;;5050128;28;20489;-80
2021/05/16 02:20:47;;;;;;;10.43;4.53;;;10.40;71.60;11.40;99383.00;;;;5036121;28;20232;-84
2021/05/16 02:23:15;;;;;;;8.40;4.20;;;10.30;71.30;11.30;99364.00;;;;5034430;28;20478;-84
2021/05/16 02:25:45;;;;;;;10.03;4.70;;;10.30;70.90;11.30;99390.00;;;;5040538;28;20480;-82
2021/05/16 02:28:20;;;;;;;9.10;4.80;;;10.30;71.00;11.40;99371.00;;;;5031217;28;20418;-80
2021/05/16 02:30:51;;;;;;;10.17;4.87;;;10.30;70.80;11.30;99381.00;;;;5028104;28;20595;-82
2021/05/16 02:33:20;;;;;;;7.45;4.00;;;10.30;70.90;11.30;99375.00;;;;5022251;28;21392;-81
2021/05/16 02:35:48;;;;;;;7.30;4.10;;;10.30;70.60;11.30;99370.00;;;;5041876;28;20197;-81
2021/05/16 02:38:15;;;;;;;8.48;4.82;;;10.20;70.70;11.40;99380.00;;;;5041335;28;20435;-83
2021/05/16 02:40:44;;;;;;;6.97;4.30;;;10.30;71.10;11.30;99382.00;;;;5031329;28;20252;-81
2021/05/16 02:43:13;;;;;;;7.55;4.45;;;10.30;71.30;11.40;99367.00;;;;5023290;28;21053;-83
2021/05/16 02:45:41;;;;;;;10.70;4.87;;;10.30;70.80;11.30;68768.00;;;;5025332;28;20264;-83
2021/05/16 02:48:14;;;;;;;7.83;4.10;;;10.30;70.70;11.30;99369.00;;;;5035623;28;20536;-85
2021/05/16 02:50:42;;;;;;;7.68;4.50;;;10.20;70.80;11.30;68773.00;;;;5036083;28;20521;-81
2021/05/16 02:53:10;;;;;;;7.50;4.30;;;10.30;70.70;217.30;161527.00;;;;5027827;28;20205;-81
2021/05/16 02:55:46;;;;;;;8.20;3.87;;;10.20;70.20;11.30;68751.00;;;;5034065;28;20507;-82
2021/05/16 02:58:14;;;;;;;6.73;4.60;;;10.20;70.90;11.30;99380.00;;;;5033998;28;20503;-81
2021/05/16 03:00:50;;;;;;;11.60;4.33;;;10.20;71.00;11.20;99390.00;;;;5032595;28;20582;-80
2021/05/16 03:03:18;;;;;;;4.53;3.40;;;10.10;70.90;11.20;99386.00;;;;5040896;28;20564;-82
2021/05/16 03:05:46;;;;;;;5.07;3.70;;;10.10;71.20;217.30;161535.00;;;;5034103;28;20958;-82
2021/05/16 03:08:15;;;;;;;8.30;3.57;;;10.10;71.40;11.20;99375.00;;;;5042205;28;20488;-80
2021/05/16 03:10:45;;;;;;;5.70;3.50;;;10.10;71.50;11.20;99371.00;;;;5032153;28;20477;-82
2021/05/16 03:13:14;;;;;;;7.03;3.70;;;10.10;71.60;11.20;99368.00;;;;5030033;28;20535;-82
2021/05/16 03:15:42;;;;;;;8.37;3.30;;;10.10;71.80;11.30;99360.00;;;;5033501;28;20471;-82
2021/05/16 03:18:11;;;;;;;8.87;3.90;;;10.10;72.00;11.30;99365.00;;;;5034776;28;20448;-83
2021/05/16 03:20:44;;;;;;;8.87;3.83;;;10.10;71.90;11.30;99362.00;;;;5050828;28;20472;-83
2021/05/16 03:23:14;;;;;;;7.95;4.10;;;10.10;71.90;11.40;99359.00;;;;5034576;28;20418;-83
2021/05/16 03:25:42;;;;;;;8.33;4.17;;;10.20;71.80;11.40;99363.00;;;;5036289;28;20636;-82
2021/05/16 03:28:11;;;;;;;8.43;4.47;;;10.30;71.40;11.50;99356.00;;;;5040244;28;21106;-81
2021/05/16 03:30:39;;;;;;;6.97;3.90;;;10.30;71.10;11.40;99349.00;;;;5033168;28;20472;-81
2021/05/16 03:33:07;;;;;;;7.35;4.13;;;10.30;70.50;11.40;99350.00;;;;5039917;28;20445;-83
2021/05/16 03:35:35;;;;;;;6.43;3.97;;;10.40;70.70;11.40;99348.00;;;;5026729;28;20206;-80
2021/05/16 03:38:03;;;;;;;8.30;3.47;;;10.30;70.60;11.40;99342.00;;;;5050399;28;20455;-81
2021/05/16 03:40:33;;;;;;;5.70;3.50;;;10.30;71.00;11.30;99343.00;;;;5048947;28;20472;-80
2021/05/16 03:43:01;;;;;;;4.40;3.30;;;10.20;71.40;11.30;99356.00;;;;5032877;28;20499;-80
2021/05/16 03:45:29;;;;;;;6.43;3.80;;;10.20;71.80;11.20;99337.00;;;;5037176;28;20456;-81
2021/05/16 03:47:57;;;;;;;6.47;3.50;;;10.10;71.90;11.10;99359.00;;;;5052160;28;20460;-82
2021/05/16 03:50:26;;;;;;;9.47;4.47;;;10.00;72.10;11.00;99343.00;;;;5042284;28;20477;-81
2021/05/16 03:52:53;;;;;;;6.93;4.13;;;9.90;73.50;11.00;99361.00;;;;5035023;28;20445;-82
2021/05/16 03:55:21;;;;;;;7.73;4.20;;;9.90;74.10;10.90;99347.00;;;;5045503;28;20461;-81
2021/05/16 03:57:50;;;;;;;7.27;4.00;;;9.90;74.50;10.90;99173.00;;;;5032270;28;20477;-81
2021/05/16 04:00:23;;;;;;;11.50;4.17;;;9.90;75.00;11.00;99359.00;;;;5027885;28;20484;-81
2021/05/16 04:02:52;;;;;;;4.73;4.00;;;9.90;75.20;11.10;99366.00;;;;5031324;28;20596;-84
2021/05/16 04:05:20;;;;;;;6.10;3.43;;;10.00;74.10;11.20;99353.00;;;;5041402;28;20455;-81
2021/05/16 04:07:49;;;;;;;4.10;3.43;;;10.10;74.10;11.30;99348.00;;;;5038998;28;20473;-83
2021/05/16 04:10:17;;;;;;;6.57;4.07;;;10.10;73.60;11.30;99357.00;;;;5055029;28;20496;-81
2021/05/16 04:12:45;;;;;;;4.70;3.50;;;10.20;73.30;11.30;99365.00;;;;5039776;28;20520;-81
2021/05/16 04:15:13;;;;;;;6.07;3.83;;;10.20;73.10;11.30;68771.00;;;;5035924;28;20489;-80
2021/05/16 04:17:41;;;;;;;5.60;3.40;;;10.20;73.00;11.30;99351.00;;;;5056175;28;20453;-85
2021/05/16 04:20:12;;;;;;;7.37;3.53;;;10.30;72.60;11.40;99350.00;;;;5039307;28;20476;-82
2021/05/16 04:22:40;;;;;;;5.70;3.87;;;10.30;72.60;11.40;99361.00;;;;5039088;28;20460;-80
2021/05/16 04:25:10;;;;;;;7.23;2.93;;;10.30;72.50;11.50;99349.00;;;;5037536;28;20476;-82
2021/05/16 04:27:38;;;;;;;4.83;3.10;;;10.40;72.30;11.50;99372.00;;;;5044777;28;20548;-80
2021/05/16 04:30:08;;;;;;;8.63;3.27;;;10.40;72.00;11.60;99365.00;;;;5044568;28;20477;-80
2021/05/16 04:32:35;;;;;;;3.83;2.60;;;10.50;71.90;11.70;99362.00;;;;5029897;28;20496;-79
2021/05/16 04:35:05;;;;;;;5.37;2.80;;;10.60;71.40;11.80;99347.00;;;;5037988;28;20461;-82
2021/05/16 04:37:33;;;;;;;5.80;2.77;;;10.60;71.00;11.80;99349.00;;;;5051770;28;20440;-86
2021/05/16 04:40:01;;;;;;;4.63;2.77;;;10.60;70.70;11.90;99350.00;;;;5046050;28;20603;-85
2021/05/16 04:42:30;;;;;;;6.80;3.57;;;10.70;70.10;11.70;99343.00;;;;5057017;28;20433;-88
2021/05/16 04:44:58;;;;;;;7.80;2.97;;;10.60;69.70;11.70;99359.00;;;;5056808;28;20433;-84
2021/05/16 04:47:26;;;;;;;7.90;2.97;;;10.50;70.20;11.60;99340.00;;;;5056437;28;20465;-82
2021/05/16 04:49:54;;;;;;;5.73;3.03;;;10.50;70.50;11.70;99343.00;;;;5050540;28;20465;-81
2021/05/16 04:52:22;;;;;;;5.57;3.00;;;10.50;70.60;11.70;99352.00;;;;5054021;28;20477;-82
2021/05/16 04:54:51;;;;;;;7.20;3.10;;;10.60;70.40;11.70;99364.00;;;;5053054;28;20449;-81
2021/05/16 04:57:19;;;;;;;5.17;2.90;;;10.70;70.40;11.80;99349.00;;;;5044215;28;20446;-81
2021/05/16 04:59:49;;;;;;;5.57;2.67;;;10.70;70.10;11.90;99355.00;;;;5034448;28;20503;-82
2021/05/16 05:02:20;;;;;;;5.90;2.77;;;10.90;69.90;12.00;99354.00;;;;5052318;28;20536;-83
2021/05/16 05:04:48;;;;;;;5.80;2.60;;;10.90;69.80;12.30;99352.00;;;;5040680;28;20493;-82
2021/05/16 05:07:16;;;;;;;8.13;3.88;;;11.10;69.60;12.40;99350.00;;;;5053438;28;20438;-83
2021/05/16 05:09:44;;;;;;;5.10;2.63;;;11.30;68.30;217.30;162054.00;;;;5037182;28;20250;-84
2021/05/16 05:12:13;;;;;;;6.85;3.17;;;11.30;68.00;12.50;99344.00;;;;5040769;28;20434;-83
2021/05/16 05:14:40;;;;;;;7.30;2.77;;;11.50;66.80;12.60;99339.00;;;;5040593;28;20225;-82
2021/05/16 05:17:09;;;;;;;3.97;2.63;;;11.40;66.90;12.60;69032.00;;;;5045829;28;20464;-80
2021/05/16 05:19:36;;;;;;;4.43;2.63;;;11.50;67.30;12.60;99352.00;;;;5027067;28;20547;-81
2021/05/16 05:22:04;;;;;;;4.07;2.43;;;11.40;67.30;12.60;99343.00;;;;5030086;28;20519;-84
2021/05/16 05:24:33;;;;;;;5.20;2.67;;;11.40;67.30;12.70;99348.00;;;;5031102;28;20449;-82
2021/05/16 05:27:02;;;;;;;8.70;2.90;;;11.50;67.40;12.90;99343.00;;;;5044489;28;20441;-86
2021/05/16 05:29:31;;;;;;;3.50;2.43;;;11.60;67.00;13.20;99356.00;;;;5052212;28;20933;-82
2021/05/16 05:31:58;;;;;;;3.20;2.37;;;11.80;66.70;13.60;99355.00;;;;5048698;28;20468;-86
2021/05/16 05:34:27;;;;;;;4.60;2.47;;;12.10;65.20;13.80;99363.00;;;;5047427;28;20442;-80
2021/05/16 05:36:56;;;;;;;4.10;2.60;;;12.30;63.60;13.80;99360.00;;;;5046395;28;20419;-81
2021/05/16 05:39:25;;;;;;;4.13;2.93;;;12.40;63.20;13.70;99361.00;;;;5043283;28;20229;-86
2021/05/16 05:41:54;;;;;;;6.60;3.20;;;12.30;63.10;13.90;99348.00;;;;5047259;28;20423;-86
2021/05/16 05:44:23;;;;;;;5.90;3.00;;;12.50;62.00;13.70;99360.00;;;;5049734;28;20473;-87
2021/05/16 05:46:52;;;;;;;5.80;3.30;;;12.40;62.00;13.80;99347.00;;;;5052542;28;20877;-87
2021/05/16 05:49:20;;;;;;;5.40;3.20;;;12.40;62.30;13.60;99357.00;;;;5054508;28;20198;-86
2021/05/16 05:51:48;;;;;;;7.22;3.20;;;12.30;61.90;13.50;99354.00;;;;5054297;28;20407;-80
2021/05/16 05:54:16;;;;;;;4.93;2.60;;;12.20;62.00;13.30;99344.00;;;;5056530;28;20186;-85
2021/05/16 05:56:44;;;;;;;6.38;3.30;;;12.00;63.30;13.20;99356.00;;;;5046384;28;20501;-82
2021/05/16 05:59:13;;;;;;;6.03;3.20;;;12.00;63.90;13.20;99360.00;;;;5053020;28;20242;-82
2021/05/16 06:01:41;;;;;;;6.38;3.75;;;12.00;64.90;13.50;99360.00;;;;5032515;28;20427;-81
2021/05/16 06:04:10;;;;;;;4.87;3.10;;;12.00;65.50;13.60;99348.00;;;;5042664;28;20210;-82
2021/05/16 06:06:38;;;;;;;7.40;3.97;;;12.20;65.30;13.70;99358.00;;;;5048929;28;20441;-86
2021/05/16 06:09:06;;;;;;;7.20;3.70;;;12.40;62.40;13.90;99360.00;;;;5054225;28;20461;-85
2021/05/16 06:11:34;;;;;;;6.47;4.68;;;12.50;62.00;14.10;99348.00;;;;5062616;28;20415;-87
2021/05/16 06:14:07;;;;;;;5.30;4.20;;;12.70;60.80;14.20;99349.00;;;;5064711;28;20201;-84
2021/05/16 06:16:35;;;;;;;7.28;4.68;;;12.90;59.60;14.40;99355.00;;;;5037522;28;20423;-81
2021/05/16 06:19:03;;;;;;;4.40;4.00;;;13.00;58.90;14.40;99112.00;;;;5036235;28;20272;-81
2021/05/16 06:21:32;;;;;;;5.90;5.07;;;13.00;58.20;14.50;99358.00;;;;5025510;28;20427;-82
2021/05/16 06:24:06;;;;;;;9.00;4.47;;;13.10;57.20;14.60;99351.00;;;;5035535;28;20740;-82
2021/05/16 06:26:37;;;;;;;4.90;4.33;;;13.20;56.60;14.50;99347.00;;;;5032097;28;20560;-83
2021/05/16 06:29:05;;;;;;;7.03;5.72;;;13.10;56.90;14.70;99350.00;;;;5022401;28;20489;-82
2021/05/16 06:31:33;;;;;;;5.23;4.73;;;13.30;56.50;14.80;99353.00;;;;5033645;28;20686;-84
2021/05/16 06:34:03;;;;;;;6.40;5.80;;;13.40;56.00;14.80;99350.00;;;;5023872;28;20506;-83
2021/05/16 06:36:32;;;;;;;5.53;5.00;;;13.40;55.60;14.90;99349.00;;;;5027861;28;20958;-84
2021/05/16 06:39:00;;;;;;;7.10;5.40;;;13.40;56.10;14.80;99357.00;;;;5029707;28;20518;-83
2021/05/16 06:41:28;;;;;;;6.72;6.03;;;13.30;56.50;14.80;99356.00;;;;5029288;28;20518;-83
2021/05/16 06:43:56;;;;;;;7.80;6.07;;;13.40;54.80;14.80;99353.00;;;;5029314;28;20330;-81
2021/05/16 06:46:24;;;;;;;7.30;6.00;;;13.40;55.00;15.00;99357.00;;;;5033679;28;20444;-81
2021/05/16 06:48:52;;;;;;;7.05;6.35;;;13.50;54.40;15.00;99343.00;;;;5045397;28;20482;-82
2021/05/16 06:51:20;;;;;;;8.10;6.50;;;13.50;53.50;14.90;99350.00;;;;5040604;28;20507;-81
2021/05/16 06:53:55;;;;;;;7.07;5.90;;;13.50;53.50;14.70;99358.00;;;;5033638;28;20752;-85
2021/05/16 06:56:24;;;;;;;8.80;7.50;;;13.40;54.90;14.70;99350.00;;;;5032531;28;20426;-83
2021/05/16 06:58:52;;;;;;;7.60;6.75;;;13.30;55.40;14.80;99354.00;;;;5030236;28;20477;-82
2021/05/16 07:01:21;;;;;;;7.88;7.07;;;13.50;54.60;14.60;99367.00;;;;5034518;28;20481;-80
2021/05/16 07:03:49;;;;;;;8.00;7.20;;;13.40;55.20;14.30;99357.00;;;;5032477;28;20423;-81
2021/05/16 07:06:17;;;;;;;8.60;7.70;;;13.20;57.40;14.00;99366.00;;;;5031748;28;20430;-81
2021/05/16 07:08:46;;;;;;;8.13;7.32;;;12.90;60.20;13.70;99348.00;;;;5030340;28;20423;-83
2021/05/16 07:11:16;;;;;;;7.50;6.80;;;12.60;61.60;13.60;99359.00;;;;5030015;28;20456;-79
2021/05/16 07:13:44;;;;;;;7.10;6.40;;;12.50;62.10;13.70;99353.00;;;;5035277;28;20399;-82
2021/05/16 07:16:12;;;;;;;7.70;6.85;;;12.70;62.30;13.90;69356.00;;;;5031982;28;20421;-81
2021/05/16 07:18:41;;;;;;;8.63;6.60;;;12.70;62.20;13.90;99369.00;;;;5056243;28;20955;-81
2021/05/16 07:21:09;;;;;;;7.00;6.40;;;12.80;62.20;14.00;69371.00;;;;5057133;28;20443;-84
2021/05/16 07:23:37;;;;;;;8.07;6.90;;;12.70;62.70;217.30;162763.00;;;;5029694;28;20461;-80
2021/05/16 07:26:05;;;;;;;7.75;6.20;;;12.80;63.60;14.20;99351.00;;;;5048232;28;20431;-84
2021/05/16 07:28:34;;;;;;;6.65;5.93;;;13.00;63.60;14.50;99347.00;;;;5033990;28;20537;-84
2021/05/16 07:31:02;;;;;;;7.10;6.28;;;13.20;61.40;14.60;99342.00;;;;5046467;28;20419;-86
2021/05/16 07:33:30;;;;;;;7.22;5.90;;;13.40;60.20;15.20;99334.00;;;;5033927;28;20431;-84
2021/05/16 07:35:59;;;;;;;6.43;5.82;;;13.90;58.20;15.60;69742.00;;;;5035312;28;21077;-82
2021/05/16 07:38:27;;;;;;;6.65;5.65;;;14.30;54.70;217.30;163546.00;;;;5045674;28;20427;-79
2021/05/16 07:40:55;;;;;;;7.65;6.25;;;14.50;52.80;16.00;99340.00;;;;5031334;28;20950;-82
2021/05/16 07:43:24;;;;;;;7.93;6.35;;;14.60;52.20;217.30;163453.00;;;;5031182;28;20494;-85
2021/05/16 07:45:56;;;;;;;6.43;5.82;;;14.40;52.60;15.40;99315.00;;;;5040217;28;20417;-83
2021/05/16 07:48:28;;;;;;;4.97;4.50;;;14.30;54.20;217.30;163104.00;;;;5038332;28;20279;-84
2021/05/16 07:50:58;;;;;;;5.47;4.97;;;13.80;53.60;15.20;69637.00;;;;5050297;28;20442;-83
2021/05/16 07:53:28;;;;;;;5.50;5.00;;;14.00;54.00;217.30;163350.00;;;;5026566;28;20427;-84
2021/05/16 07:55:56;;;;;;;6.30;5.70;;;14.20;50.60;217.30;163269.00;;;;5042389;28;20435;-83
2021/05/16 07:58:24;;;;;;;5.30;4.80;;;14.00;53.60;14.90;69590.00;;;;5031463;28;20428;-84
2021/05/16 08:00:53;;;;;;;4.88;4.05;;;13.90;53.60;217.30;163213.00;;;;5040886;28;20437;-85
2021/05/16 08:03:21;;;;;;;5.82;4.70;;;14.00;54.00;15.60;69736.00;;;;5034963;28;20430;-81
2021/05/16 08:05:51;;;;;;;4.75;4.28;;;14.20;53.20;15.90;69799.00;;;;5045983;28;20454;-81
2021/05/16 08:08:20;;;;;;;4.00;3.30;;;14.50;52.80;217.30;163606.00;;;;5044578;28;20795;-80
2021/05/16 08:10:48;;;;;;;5.60;4.20;;;14.60;49.00;16.30;69872.00;;;;5051388;28;20425;-82
2021/05/16 08:13:16;;;;;;;5.10;3.50;;;14.90;48.30;217.30;163693.00;;;;5040206;28;20936;-84
2021/05/16 08:15:44;;;;;;;4.20;3.10;;;15.00;45.70;217.30;163792.00;;;;5047151;28;20458;-85
2021/05/16 08:18:12;;;;;;;3.83;3.40;;;15.10;47.20;16.40;69920.00;;;;5050927;28;20403;-85
2021/05/16 08:20:44;;;;;;;3.50;3.20;;;15.20;48.10;16.70;99339.00;;;;5039715;28;20442;-83
2021/05/16 08:23:12;;;;;;;5.07;2.60;;;15.50;47.20;17.00;99325.00;;;;5047019;28;20536;-84
2021/05/16 08:25:40;;;;;;;3.95;2.60;;;15.60;46.90;17.30;99331.00;;;;5051450;28;20780;-81
2021/05/16 08:28:09;;;;;;;4.85;2.83;;;16.00;41.80;17.30;99331.00;;;;5054031;28;20429;-79
2021/05/16 08:30:39;;;;;;;3.50;2.70;;;16.10;39.90;17.30;99322.00;;;;5038435;28;20441;-81
2021/05/16 08:33:07;;;;;;;3.23;2.50;;;16.00;38.10;17.20;99328.00;;;;5027046;28;20430;-79
2021/05/16 08:35:36;;;;;;;3.83;2.67;;;15.90;40.00;17.00;99107.00;;;;5034754;28;20431;-80
2021/05/16 08:38:05;;;;;;;4.57;2.90;;;15.60;40.20;16.50;99322.00;;;;5033613;28;20426;-81
2021/05/16 08:40:33;;;;;;;3.93;2.40;;;15.20;42.30;16.70;99325.00;;;;5033733;28;20490;-81
2021/05/16 08:43:02;;;;;;;4.70;2.60;;;15.30;42.10;16.40;99311.00;;;;5034506;28;20434;-81
2021/05/16 08:45:30;;;;;;;4.00;2.60;;;15.00;43.50;16.10;99326.00;;;;5038305;28;20438;-83
2021/05/16 08:47:59;;;;;;;4.83;2.67;;;14.80;45.10;15.80;99330.00;;;;5027588;28;20714;-81
2021/05/16 08:50:28;;;;;;;4.30;2.47;;;14.50;48.00;15.60;99318.00;;;;5035407;28;20964;-82
2021/05/16 08:52:57;;;;;;;3.50;2.70;;;14.30;48.10;15.80;99310.00;;;;5023738;28;20426;-82
2021/05/16 08:55:27;;;;;;;3.33;2.33;;;14.40;49.20;16.40;99309.00;;;;5036027;28;20237;-79
2021/05/16 08:57:55;;;;;;;4.10;2.30;;;14.90;47.50;16.80;99304.00;;;;5047031;28;20423;-80
2021/05/16 09:00:26;;;;;;;3.33;2.30;;;15.30;41.00;17.10;99290.00;;;;5032167;28;20423;-80
2021/05/16 09:03:08;;;;;;;5.53;2.50;;;15.80;38.30;17.40;99295.00;;;;5034654;28;20415;-81
2021/05/16 09:05:39;;;;;;;5.40;2.40;;;16.00;36.30;217.30;164038.00;;;;5037586;28;20450;-81
2021/05/16 09:08:12;;;;;;;5.40;2.17;;;15.70;37.30;16.80;99297.00;;;;5034036;28;20768;-81
2021/05/16 09:10:43;;;;;;;5.97;2.20;;;15.60;38.00;17.20;99297.00;;;;5033383;28;20456;-79
2021/05/16 09:13:17;;;;;;;5.00;2.10;;;16.00;33.50;17.70;99287.00;;;;5044898;28;20454;-80
2021/05/16 09:16:09;;;;;;;3.83;1.80;;;16.50;31.20;19.00;99288.00;;;;5052051;28;20423;-80
2021/05/16 09:18:41;;;;;;;3.28;1.90;;;17.30;28.50;19.20;99299.00;;;;5035520;28;20442;-81
2021/05/16 09:21:28;;;;;;;4.78;2.10;;;17.50;25.60;217.30;164655.00;;;;5049645;28;20422;-82
2021/05/16 09:24:13;;;;;;;5.45;2.08;;;17.00;29.70;17.50;99297.00;;;;5052348;28;20418;-82
2021/05/16 09:26:55;;;;;;;5.07;2.25;;;16.40;34.80;17.00;99321.00;;;;5046557;28;20438;-81
2021/05/16 09:29:29;;;;;;;6.70;2.40;;;16.00;36.10;17.00;99305.00;;;;5035842;28;20610;-80
2021/05/16 09:32:00;;;;;;;6.65;2.20;;;16.00;37.00;17.20;99324.00;;;;5026872;28;20469;-80
2021/05/16 09:34:29;;;;;;;6.05;2.40;;;16.00;37.70;16.90;99334.00;;;;5032704;28;20466;-82
2021/05/16 09:36:58;;;;;;;4.50;2.00;;;15.90;37.00;16.30;99325.00;;;;5032957;28;20214;-81
2021/05/16 09:39:28;;;;;;;4.73;1.87;;;15.40;39.70;15.80;99325.00;;;;5042114;28;20713;-81
2021/05/16 09:42:03;;;;;;;5.55;2.10;;;14.80;41.80;15.90;99329.00;;;;5032335;28;20429;-82
2021/05/16 09:44:39;;;;;;;5.20;2.00;;;14.80;43.70;16.40;99315.00;;;;5033026;28;20430;-82
2021/05/16 09:47:13;;;;;;;5.10;2.13;;;15.40;39.60;16.20;99320.00;;;;5029956;28;20720;-80
2021/05/16 09:49:44;;;;;;;4.25;2.20;;;15.50;38.60;16.30;99310.00;;;;5036518;28;20824;-81
2021/05/16 09:52:15;;;;;;;4.70;1.90;;;15.70;37.80;16.40;99309.00;;;;5039984;28;20437;-82
2021/05/16 09:55:03;;;;;;;3.75;1.88;;;15.80;33.60;16.70;99316.00;;;;5039640;28;20497;-82
2021/05/16 09:57:34;;;;;;;4.47;2.20;;;16.00;32.30;16.50;99300.00;;;;5042556;28;20422;-83
2021/05/16 10:00:05;;;;;;;5.63;2.45;;;15.80;31.60;16.50;99315.00;;;;5047521;28;20430;-83
2021/05/16 10:02:35;;;;;;;7.97;2.67;;;16.00;31.70;17.20;99295.00;;;;5026773;28;20858;-80
2021/05/16 10:05:09;;;;;;;5.07;2.10;;;16.60;29.40;17.70;99306.00;;;;5044247;28;20427;-81
2021/05/16 10:07:39;;;;;;;3.50;1.80;;;17.20;27.40;217.30;164649.00;;;;5035602;28;20457;-81
2021/05/16 10:10:10;;;;;;;5.97;3.42;;;17.90;22.20;18.90;99317.00;;;;5038787;28;20431;-81
2021/05/16 10:12:40;;;;;;;5.47;2.40;;;18.10;21.40;217.30;164497.00;;;;5054933;28;20431;-81
2021/05/16 10:15:14;;;;;;;4.10;1.90;;;17.40;20.00;16.70;69978.00;;;;5034200;28;20434;-80
2021/05/16 10:17:47;;;;;;;4.30;1.90;;;16.20;27.30;16.30;99321.00;;;;5036099;28;20422;-81
2021/05/16 10:20:20;;;;;;;5.30;1.98;;;15.70;26.90;16.30;99299.00;;;;5028501;28;20454;-81
2021/05/16 10:22:53;;;;;;;5.95;1.90;;;15.50;29.90;16.90;99290.00;;;;5038512;28;20553;-81
2021/05/16 10:25:40;;;;;;;4.78;2.05;;;16.00;31.90;17.30;99292.00;;;;5051947;28;20770;-81
2021/05/16 10:28:11;;;;;;;5.33;2.20;;;16.60;28.70;17.90;70253.00;;;;5043362;28;20427;-84
2021/05/16 10:30:41;;;;;;;3.30;1.77;;;17.40;29.30;217.30;164612.00;;;;5045732;28;20435;-83
2021/05/16 10:33:31;;;;;;;3.67;1.88;;;18.00;25.10;18.10;70270.00;;;;5034630;28;20792;-82
2021/05/16 10:36:00;;;;;;;5.03;2.10;;;17.80;21.40;17.50;99251.00;;;;5045495;28;20817;-82
2021/05/16 10:38:35;;;;;;;4.70;2.08;;;17.30;22.90;17.40;99270.00;;;;5031089;28;20434;-82
2021/05/16 10:41:15;;;;;;;5.57;2.10;;;17.10;22.00;17.80;99263.00;;;;5036434;28;20461;-82
2021/05/16 10:43:45;;;;;;;4.78;1.90;;;17.30;22.00;18.40;99248.00;;;;5037228;28;20442;-82
2021/05/16 10:46:43;;;;;;;4.47;1.70;;;17.60;21.30;18.60;99268.00;;;;5052660;28;20442;-81
2021/05/16 10:49:22;;;;;;;4.32;1.90;;;17.80;17.60;18.50;99262.00;;;;5028854;28;20427;-81
2021/05/16 10:51:50;;;;;;;4.60;1.70;;;17.80;13.50;18.10;99238.00;;;;5039010;28;20473;-82
2021/05/16 10:54:29;;;;;;;3.63;1.70;;;17.50;16.60;17.40;99255.00;;;;5048830;28;20450;-83
2021/05/16 10:57:14;;;;;;;5.13;2.17;;;17.10;15.00;17.10;99241.00;;;;5046887;28;20411;-81
2021/05/16 10:59:45;;;;;;;4.90;1.92;;;16.70;19.00;17.00;70069.00;;;;5053612;28;20418;-81
2021/05/16 11:02:14;;;;;;;6.03;2.30;;;16.60;20.60;17.50;99231.00;;;;5051952;28;20411;-81
2021/05/16 11:04:46;;;;;;;5.13;2.03;;;16.80;20.60;17.80;99217.00;;;;5048723;28;20418;-83